sensor_id;sensor_type;location;lat;lon;timestamp;P1;durP1;ratioP1;P2;durP2;ratioP2
65033;SDS011;51601;51.356;12.458;2022-09-12T00:01:40;16.95;;;10.05;;
65033;SDS011;51601;51.356;12.458;2022-09-12T00:05:54;19.13;;;10.38;;
65033;SDS011;51601;51.356;12.458;2022-09-12T00:10:09;19.97;;;9.97;;
65033;SDS011;51601;51.356;12.458;2022-09-12T00:14:23;16.88;;;9.95;;
65033;SDS011;51601;51.356;12.458;2022-09-12T00:18:36;18.85;;;10.20;;
65033;SDS011;51601;51.356;12.458;2022-09-12T00:22:50;17.47;;;10.13;;
65033;SDS011;51601;51.356;12.458;2022-09-12T00:27:05;20.55;;;10.98;;
65033;SDS011;51601;51.356;12.458;2022-09-12T00:31:20;19.15;;;10.77;;
65033;SDS011;51601;51.356;12.458;2022-09-12T00:35:39;20.37;;;11.00;;
65033;SDS011;51601;51.356;12.458;2022-09-12T00:39:55;19.08;;;10.38;;
65033;SDS011;51601;51.356;12.458;2022-09-12T00:48:58;18.90;;;10.05;;
65033;SDS011;51601;51.356;12.458;2022-09-12T00:53:15;19.70;;;10.60;;
65033;SDS011;51601;51.356;12.458;2022-09-12T00:57:31;18.45;;;10.48;;
65033;SDS011;51601;51.356;12.458;2022-09-12T01:01:50;18.63;;;10.05;;
65033;SDS011;51601;51.356;12.458;2022-09-12T01:06:06;19.13;;;10.87;;
65033;SDS011;51601;51.356;12.458;2022-09-12T01:10:26;17.40;;;10.38;;
65033;SDS011;51601;51.356;12.458;2022-09-12T01:14:40;18.38;;;10.32;;
65033;SDS011;51601;51.356;12.458;2022-09-12T01:19:00;19.17;;;10.73;;
65033;SDS011;51601;51.356;12.458;2022-09-12T01:28:16;20.48;;;11.35;;
65033;SDS011;51601;51.356;12.458;2022-09-12T01:32:52;21.85;;;11.50;;
65033;SDS011;51601;51.356;12.458;2022-09-12T01:37:12;19.63;;;10.97;;
65033;SDS011;51601;51.356;12.458;2022-09-12T01:41:29;18.08;;;10.90;;
65033;SDS011;51601;51.356;12.458;2022-09-12T01:45:53;21.92;;;11.45;;
65033;SDS011;51601;51.356;12.458;2022-09-12T01:50:12;19.23;;;10.47;;
65033;SDS011;51601;51.356;12.458;2022-09-12T01:54:32;22.52;;;11.52;;
65033;SDS011;51601;51.356;12.458;2022-09-12T01:58:53;18.50;;;10.95;;
65033;SDS011;51601;51.356;12.458;2022-09-12T02:03:11;19.77;;;11.60;;
65033;SDS011;51601;51.356;12.458;2022-09-12T02:07:31;20.60;;;10.98;;
65033;SDS011;51601;51.356;12.458;2022-09-12T02:11:51;21.73;;;11.45;;
65033;SDS011;51601;51.356;12.458;2022-09-12T02:16:08;23.65;;;12.07;;
65033;SDS011;51601;51.356;12.458;2022-09-12T02:20:27;26.07;;;12.47;;
65033;SDS011;51601;51.356;12.458;2022-09-12T02:25:00;21.58;;;12.07;;
65033;SDS011;51601;51.356;12.458;2022-09-12T02:29:17;24.88;;;12.57;;
65033;SDS011;51601;51.356;12.458;2022-09-12T02:33:31;21.70;;;12.50;;
65033;SDS011;51601;51.356;12.458;2022-09-12T02:37:53;22.38;;;12.88;;
65033;SDS011;51601;51.356;12.458;2022-09-12T02:42:14;23.52;;;13.13;;
65033;SDS011;51601;51.356;12.458;2022-09-12T02:46:29;24.27;;;12.53;;
65033;SDS011;51601;51.356;12.458;2022-09-12T02:50:48;25.27;;;13.27;;
65033;SDS011;51601;51.356;12.458;2022-09-12T02:55:03;27.25;;;13.52;;
65033;SDS011;51601;51.356;12.458;2022-09-12T02:59:20;24.67;;;13.45;;
65033;SDS011;51601;51.356;12.458;2022-09-12T03:03:39;26.20;;;13.63;;
65033;SDS011;51601;51.356;12.458;2022-09-12T03:08:20;26.77;;;12.77;;
65033;SDS011;51601;51.356;12.458;2022-09-12T03:12:52;25.70;;;13.65;;
65033;SDS011;51601;51.356;12.458;2022-09-12T03:17:21;28.77;;;14.07;;
65033;SDS011;51601;51.356;12.458;2022-09-12T03:21:44;27.58;;;14.65;;
65033;SDS011;51601;51.356;12.458;2022-09-12T03:26:08;31.08;;;14.63;;
65033;SDS011;51601;51.356;12.458;2022-09-12T03:30:25;29.57;;;14.53;;
65033;SDS011;51601;51.356;12.458;2022-09-12T03:34:41;29.33;;;14.50;;
65033;SDS011;51601;51.356;12.458;2022-09-12T03:38:55;31.27;;;15.90;;
65033;SDS011;51601;51.356;12.458;2022-09-12T03:43:09;31.40;;;15.40;;
65033;SDS011;51601;51.356;12.458;2022-09-12T03:47:23;36.17;;;15.90;;
65033;SDS011;51601;51.356;12.458;2022-09-12T03:51:38;39.70;;;16.35;;
65033;SDS011;51601;51.356;12.458;2022-09-12T03:55:53;35.50;;;15.55;;
65033;SDS011;51601;51.356;12.458;2022-09-12T04:00:08;37.20;;;16.53;;
65033;SDS011;51601;51.356;12.458;2022-09-12T04:04:26;37.58;;;16.33;;
65033;SDS011;51601;51.356;12.458;2022-09-12T04:08:41;38.30;;;17.90;;
65033;SDS011;51601;51.356;12.458;2022-09-12T04:12:56;42.40;;;16.20;;
65033;SDS011;51601;51.356;12.458;2022-09-12T04:17:10;41.00;;;17.23;;
65033;SDS011;51601;51.356;12.458;2022-09-12T04:21:25;40.08;;;17.35;;
65033;SDS011;51601;51.356;12.458;2022-09-12T04:25:40;41.17;;;17.88;;
65033;SDS011;51601;51.356;12.458;2022-09-12T04:29:54;39.77;;;17.53;;
65033;SDS011;51601;51.356;12.458;2022-09-12T04:34:08;37.28;;;16.98;;
65033;SDS011;51601;51.356;12.458;2022-09-12T04:38:22;38.53;;;16.25;;
65033;SDS011;51601;51.356;12.458;2022-09-12T04:42:38;33.07;;;16.63;;
65033;SDS011;51601;51.356;12.458;2022-09-12T04:46:52;34.53;;;15.88;;
65033;SDS011;51601;51.356;12.458;2022-09-12T04:51:07;35.45;;;16.13;;
65033;SDS011;51601;51.356;12.458;2022-09-12T04:55:22;32.40;;;16.10;;
65033;SDS011;51601;51.356;12.458;2022-09-12T04:59:38;31.35;;;15.82;;
65033;SDS011;51601;51.356;12.458;2022-09-12T05:03:52;32.08;;;16.40;;
65033;SDS011;51601;51.356;12.458;2022-09-12T05:08:06;27.17;;;14.60;;
65033;SDS011;51601;51.356;12.458;2022-09-12T05:12:20;26.10;;;13.60;;
65033;SDS011;51601;51.356;12.458;2022-09-12T05:16:35;34.22;;;14.77;;
65033;SDS011;51601;51.356;12.458;2022-09-12T05:20:49;26.13;;;14.27;;
65033;SDS011;51601;51.356;12.458;2022-09-12T05:25:03;27.97;;;15.40;;
65033;SDS011;51601;51.356;12.458;2022-09-12T05:29:18;27.33;;;14.75;;
65033;SDS011;51601;51.356;12.458;2022-09-12T05:33:33;31.50;;;15.25;;
65033;SDS011;51601;51.356;12.458;2022-09-12T05:37:48;30.63;;;14.97;;
65033;SDS011;51601;51.356;12.458;2022-09-12T05:42:02;26.48;;;14.50;;
65033;SDS011;51601;51.356;12.458;2022-09-12T05:46:18;32.42;;;15.70;;
65033;SDS011;51601;51.356;12.458;2022-09-12T05:50:35;30.90;;;15.82;;
65033;SDS011;51601;51.356;12.458;2022-09-12T05:54:48;31.20;;;15.77;;
65033;SDS011;51601;51.356;12.458;2022-09-12T05:59:03;32.80;;;15.57;;
65033;SDS011;51601;51.356;12.458;2022-09-12T06:03:18;28.40;;;14.93;;
65033;SDS011;51601;51.356;12.458;2022-09-12T06:07:34;24.30;;;12.13;;
65033;SDS011;51601;51.356;12.458;2022-09-12T06:11:48;25.02;;;12.05;;
65033;SDS011;51601;51.356;12.458;2022-09-12T06:16:03;20.73;;;11.20;;
65033;SDS011;51601;51.356;12.458;2022-09-12T06:20:19;20.37;;;10.60;;
65033;SDS011;51601;51.356;12.458;2022-09-12T06:24:34;20.80;;;10.90;;
65033;SDS011;51601;51.356;12.458;2022-09-12T06:28:48;17.00;;;10.70;;
65033;SDS011;51601;51.356;12.458;2022-09-12T06:33:02;18.55;;;10.82;;
65033;SDS011;51601;51.356;12.458;2022-09-12T06:37:16;19.30;;;11.10;;
65033;SDS011;51601;51.356;12.458;2022-09-12T06:41:32;18.33;;;10.98;;
65033;SDS011;51601;51.356;12.458;2022-09-12T06:45:47;18.55;;;11.20;;
65033;SDS011;51601;51.356;12.458;2022-09-12T06:50:01;19.00;;;10.70;;
65033;SDS011;51601;51.356;12.458;2022-09-12T06:54:16;17.65;;;10.55;;
65033;SDS011;51601;51.356;12.458;2022-09-12T06:58:32;16.95;;;10.73;;
65033;SDS011;51601;51.356;12.458;2022-09-12T07:02:47;17.93;;;10.73;;
65033;SDS011;51601;51.356;12.458;2022-09-12T07:07:00;16.80;;;10.63;;
65033;SDS011;51601;51.356;12.458;2022-09-12T07:11:15;19.38;;;11.68;;
65033;SDS011;51601;51.356;12.458;2022-09-12T07:15:34;18.80;;;12.02;;
65033;SDS011;51601;51.356;12.458;2022-09-12T07:19:48;18.57;;;11.70;;
65033;SDS011;51601;51.356;12.458;2022-09-12T07:24:02;18.05;;;11.68;;
65033;SDS011;51601;51.356;12.458;2022-09-12T07:28:16;17.48;;;10.55;;
65033;SDS011;51601;51.356;12.458;2022-09-12T07:32:31;17.33;;;11.03;;
65033;SDS011;51601;51.356;12.458;2022-09-12T07:36:44;17.35;;;11.00;;
65033;SDS011;51601;51.356;12.458;2022-09-12T07:40:58;20.63;;;11.93;;
65033;SDS011;51601;51.356;12.458;2022-09-12T07:45:13;19.97;;;11.70;;
65033;SDS011;51601;51.356;12.458;2022-09-12T07:49:28;18.02;;;11.60;;
65033;SDS011;51601;51.356;12.458;2022-09-12T07:53:42;20.75;;;11.00;;
65033;SDS011;51601;51.356;12.458;2022-09-12T07:57:56;18.50;;;11.30;;
65033;SDS011;51601;51.356;12.458;2022-09-12T08:02:10;18.43;;;10.10;;
65033;SDS011;51601;51.356;12.458;2022-09-12T08:06:30;16.23;;;10.18;;
65033;SDS011;51601;51.356;12.458;2022-09-12T08:10:47;14.80;;;9.27;;
65033;SDS011;51601;51.356;12.458;2022-09-12T08:15:01;17.80;;;10.70;;
65033;SDS011;51601;51.356;12.458;2022-09-12T08:19:14;15.25;;;9.40;;
65033;SDS011;51601;51.356;12.458;2022-09-12T08:23:29;13.20;;;9.10;;
65033;SDS011;51601;51.356;12.458;2022-09-12T08:27:43;14.20;;;9.67;;
65033;SDS011;51601;51.356;12.458;2022-09-12T08:31:57;14.77;;;9.10;;
65033;SDS011;51601;51.356;12.458;2022-09-12T08:36:11;13.23;;;8.55;;
65033;SDS011;51601;51.356;12.458;2022-09-12T08:40:28;11.85;;;8.43;;
65033;SDS011;51601;51.356;12.458;2022-09-12T08:49:24;12.27;;;7.88;;
65033;SDS011;51601;51.356;12.458;2022-09-12T08:53:41;11.98;;;7.25;;
65033;SDS011;51601;51.356;12.458;2022-09-12T08:58:00;10.20;;;6.87;;
65033;SDS011;51601;51.356;12.458;2022-09-12T09:02:31;10.20;;;6.47;;
65033;SDS011;51601;51.356;12.458;2022-09-12T09:07:03;10.82;;;6.97;;
65033;SDS011;51601;51.356;12.458;2022-09-12T09:16:10;11.60;;;5.72;;
65033;SDS011;51601;51.356;12.458;2022-09-12T09:20:31;11.18;;;6.50;;
65033;SDS011;51601;51.356;12.458;2022-09-12T09:24:49;10.38;;;5.80;;
65033;SDS011;51601;51.356;12.458;2022-09-12T09:29:10;12.80;;;5.90;;
65033;SDS011;51601;51.356;12.458;2022-09-12T09:33:32;10.93;;;5.95;;
65033;SDS011;51601;51.356;12.458;2022-09-12T09:37:54;9.23;;;5.60;;
65033;SDS011;51601;51.356;12.458;2022-09-12T09:42:18;9.03;;;5.20;;
65033;SDS011;51601;51.356;12.458;2022-09-12T09:46:39;9.10;;;5.22;;
65033;SDS011;51601;51.356;12.458;2022-09-12T09:50:56;8.90;;;4.80;;
65033;SDS011;51601;51.356;12.458;2022-09-12T09:55:14;7.30;;;4.30;;
65033;SDS011;51601;51.356;12.458;2022-09-12T09:59:32;10.38;;;5.03;;
65033;SDS011;51601;51.356;12.458;2022-09-12T10:03:47;8.60;;;4.70;;
65033;SDS011;51601;51.356;12.458;2022-09-12T10:08:03;7.75;;;4.70;;
65033;SDS011;51601;51.356;12.458;2022-09-12T10:12:23;9.53;;;4.33;;
65033;SDS011;51601;51.356;12.458;2022-09-12T10:16:47;13.68;;;5.75;;
65033;SDS011;51601;51.356;12.458;2022-09-12T10:21:14;8.52;;;4.28;;
65033;SDS011;51601;51.356;12.458;2022-09-12T10:25:36;9.37;;;5.40;;
65033;SDS011;51601;51.356;12.458;2022-09-12T10:29:52;124.07;;;42.33;;
65033;SDS011;51601;51.356;12.458;2022-09-12T10:34:09;26.70;;;11.73;;
65033;SDS011;51601;51.356;12.458;2022-09-12T10:38:47;11.53;;;5.73;;
65033;SDS011;51601;51.356;12.458;2022-09-12T10:43:14;17.08;;;7.65;;
65033;SDS011;51601;51.356;12.458;2022-09-12T10:47:29;8.60;;;4.30;;
65033;SDS011;51601;51.356;12.458;2022-09-12T10:51:44;6.72;;;4.18;;
65033;SDS011;51601;51.356;12.458;2022-09-12T10:56:00;8.13;;;4.40;;
65033;SDS011;51601;51.356;12.458;2022-09-12T11:00:20;7.68;;;3.72;;
65033;SDS011;51601;51.356;12.458;2022-09-12T11:04:40;8.30;;;3.67;;
65033;SDS011;51601;51.356;12.458;2022-09-12T11:09:04;8.53;;;3.40;;
65033;SDS011;51601;51.356;12.458;2022-09-12T11:13:29;7.20;;;3.22;;
65033;SDS011;51601;51.356;12.458;2022-09-12T11:18:02;6.50;;;3.65;;
65033;SDS011;51601;51.356;12.458;2022-09-12T11:22:28;5.60;;;2.40;;
65033;SDS011;51601;51.356;12.458;2022-09-12T11:27:08;5.30;;;2.72;;
65033;SDS011;51601;51.356;12.458;2022-09-12T11:31:43;5.03;;;2.47;;
65033;SDS011;51601;51.356;12.458;2022-09-12T11:36:14;5.78;;;2.55;;
65033;SDS011;51601;51.356;12.458;2022-09-12T11:40:40;5.57;;;2.27;;
65033;SDS011;51601;51.356;12.458;2022-09-12T11:44:59;6.45;;;2.80;;
65033;SDS011;51601;51.356;12.458;2022-09-12T11:49:21;6.85;;;2.83;;
65033;SDS011;51601;51.356;12.458;2022-09-12T11:53:55;6.87;;;3.10;;
65033;SDS011;51601;51.356;12.458;2022-09-12T11:58:14;5.75;;;2.95;;
65033;SDS011;51601;51.356;12.458;2022-09-12T12:02:32;6.65;;;2.83;;
65033;SDS011;51601;51.356;12.458;2022-09-12T12:06:52;6.13;;;3.27;;
65033;SDS011;51601;51.356;12.458;2022-09-12T12:11:15;5.65;;;3.05;;
65033;SDS011;51601;51.356;12.458;2022-09-12T12:15:39;7.28;;;3.30;;
65033;SDS011;51601;51.356;12.458;2022-09-12T12:19:59;8.40;;;3.83;;
65033;SDS011;51601;51.356;12.458;2022-09-12T12:24:20;7.03;;;3.90;;
65033;SDS011;51601;51.356;12.458;2022-09-12T12:37:59;7.20;;;3.60;;
65033;SDS011;51601;51.356;12.458;2022-09-12T12:47:18;7.40;;;3.97;;
65033;SDS011;51601;51.356;12.458;2022-09-12T12:51:41;6.40;;;3.70;;
65033;SDS011;51601;51.356;12.458;2022-09-12T12:56:27;6.60;;;4.07;;
65033;SDS011;51601;51.356;12.458;2022-09-12T13:00:46;6.97;;;4.00;;
65033;SDS011;51601;51.356;12.458;2022-09-12T13:05:18;8.00;;;3.90;;
65033;SDS011;51601;51.356;12.458;2022-09-12T13:09:36;6.27;;;3.60;;
65033;SDS011;51601;51.356;12.458;2022-09-12T13:13:56;7.68;;;3.90;;
65033;SDS011;51601;51.356;12.458;2022-09-12T13:18:13;7.07;;;3.97;;
65033;SDS011;51601;51.356;12.458;2022-09-12T13:22:39;7.67;;;4.00;;
65033;SDS011;51601;51.356;12.458;2022-09-12T13:26:55;7.78;;;4.70;;
65033;SDS011;51601;51.356;12.458;2022-09-12T13:31:10;8.10;;;4.35;;
65033;SDS011;51601;51.356;12.458;2022-09-12T13:35:32;6.90;;;4.00;;
65033;SDS011;51601;51.356;12.458;2022-09-12T13:39:57;9.27;;;4.60;;
65033;SDS011;51601;51.356;12.458;2022-09-12T13:44:22;6.97;;;4.07;;
65033;SDS011;51601;51.356;12.458;2022-09-12T13:48:38;6.60;;;4.25;;
65033;SDS011;51601;51.356;12.458;2022-09-12T13:52:54;6.83;;;3.73;;
65033;SDS011;51601;51.356;12.458;2022-09-12T13:57:22;6.60;;;3.90;;
65033;SDS011;51601;51.356;12.458;2022-09-12T14:01:42;6.80;;;3.72;;
65033;SDS011;51601;51.356;12.458;2022-09-12T14:05:57;6.70;;;4.20;;
65033;SDS011;51601;51.356;12.458;2022-09-12T14:10:13;6.78;;;4.07;;
65033;SDS011;51601;51.356;12.458;2022-09-12T14:14:33;6.80;;;3.83;;
65033;SDS011;51601;51.356;12.458;2022-09-12T14:18:50;7.40;;;4.10;;
65033;SDS011;51601;51.356;12.458;2022-09-12T14:23:05;6.78;;;4.18;;
65033;SDS011;51601;51.356;12.458;2022-09-12T14:27:30;7.40;;;4.03;;
65033;SDS011;51601;51.356;12.458;2022-09-12T14:32:02;7.68;;;4.05;;
65033;SDS011;51601;51.356;12.458;2022-09-12T14:36:22;6.10;;;3.90;;
65033;SDS011;51601;51.356;12.458;2022-09-12T14:40:39;6.35;;;3.92;;
65033;SDS011;51601;51.356;12.458;2022-09-12T14:44:55;7.38;;;4.20;;
65033;SDS011;51601;51.356;12.458;2022-09-12T14:49:14;8.70;;;3.83;;
65033;SDS011;51601;51.356;12.458;2022-09-12T14:53:31;7.25;;;4.10;;
65033;SDS011;51601;51.356;12.458;2022-09-12T14:57:46;7.72;;;3.97;;
65033;SDS011;51601;51.356;12.458;2022-09-12T15:06:40;6.95;;;3.70;;
65033;SDS011;51601;51.356;12.458;2022-09-12T15:10:54;8.35;;;3.95;;
65033;SDS011;51601;51.356;12.458;2022-09-12T15:15:12;5.90;;;3.42;;
65033;SDS011;51601;51.356;12.458;2022-09-12T15:19:27;6.30;;;3.33;;
65033;SDS011;51601;51.356;12.458;2022-09-12T15:23:44;7.65;;;3.83;;
65033;SDS011;51601;51.356;12.458;2022-09-12T15:28:00;6.82;;;3.70;;
65033;SDS011;51601;51.356;12.458;2022-09-12T15:32:22;7.77;;;3.63;;
65033;SDS011;51601;51.356;12.458;2022-09-12T15:36:36;6.57;;;3.80;;
65033;SDS011;51601;51.356;12.458;2022-09-12T15:40:52;7.30;;;3.53;;
65033;SDS011;51601;51.356;12.458;2022-09-12T15:45:11;5.80;;;3.30;;
65033;SDS011;51601;51.356;12.458;2022-09-12T15:49:29;6.40;;;3.72;;
65033;SDS011;51601;51.356;12.458;2022-09-12T15:53:43;7.00;;;4.07;;
65033;SDS011;51601;51.356;12.458;2022-09-12T15:58:00;7.68;;;3.72;;
65033;SDS011;51601;51.356;12.458;2022-09-12T16:02:18;5.97;;;3.63;;
65033;SDS011;51601;51.356;12.458;2022-09-12T16:06:32;6.63;;;3.67;;
65033;SDS011;51601;51.356;12.458;2022-09-12T16:10:48;8.32;;;4.30;;
65033;SDS011;51601;51.356;12.458;2022-09-12T16:15:08;8.30;;;4.20;;
65033;SDS011;51601;51.356;12.458;2022-09-12T16:19:24;7.57;;;3.80;;
65033;SDS011;51601;51.356;12.458;2022-09-12T16:23:40;8.00;;;3.88;;
65033;SDS011;51601;51.356;12.458;2022-09-12T16:27:54;8.20;;;3.90;;
65033;SDS011;51601;51.356;12.458;2022-09-12T16:32:09;7.38;;;3.70;;
65033;SDS011;51601;51.356;12.458;2022-09-12T16:36:23;7.38;;;3.95;;
65033;SDS011;51601;51.356;12.458;2022-09-12T16:40:37;6.32;;;3.60;;
65033;SDS011;51601;51.356;12.458;2022-09-12T16:44:51;6.97;;;3.40;;
65033;SDS011;51601;51.356;12.458;2022-09-12T16:49:06;8.95;;;3.67;;
65033;SDS011;51601;51.356;12.458;2022-09-12T16:53:19;7.22;;;3.58;;
65033;SDS011;51601;51.356;12.458;2022-09-12T16:57:33;7.30;;;3.70;;
65033;SDS011;51601;51.356;12.458;2022-09-12T17:01:47;7.18;;;3.45;;
65033;SDS011;51601;51.356;12.458;2022-09-12T17:06:03;7.43;;;3.97;;
65033;SDS011;51601;51.356;12.458;2022-09-12T17:10:18;8.50;;;4.00;;
65033;SDS011;51601;51.356;12.458;2022-09-12T17:14:32;6.55;;;3.90;;
65033;SDS011;51601;51.356;12.458;2022-09-12T17:18:46;8.38;;;3.70;;
65033;SDS011;51601;51.356;12.458;2022-09-12T17:23:02;7.40;;;4.10;;
65033;SDS011;51601;51.356;12.458;2022-09-12T17:27:20;7.57;;;4.10;;
65033;SDS011;51601;51.356;12.458;2022-09-12T17:31:34;7.47;;;4.25;;
65033;SDS011;51601;51.356;12.458;2022-09-12T17:35:50;7.97;;;4.30;;
65033;SDS011;51601;51.356;12.458;2022-09-12T17:40:06;7.97;;;4.33;;
65033;SDS011;51601;51.356;12.458;2022-09-12T17:44:21;7.00;;;4.10;;
65033;SDS011;51601;51.356;12.458;2022-09-12T17:48:35;8.90;;;4.40;;
65033;SDS011;51601;51.356;12.458;2022-09-12T17:52:49;7.17;;;4.47;;
65033;SDS011;51601;51.356;12.458;2022-09-12T17:57:05;8.63;;;4.30;;
65033;SDS011;51601;51.356;12.458;2022-09-12T18:01:19;6.93;;;4.15;;
65033;SDS011;51601;51.356;12.458;2022-09-12T18:05:51;7.85;;;4.40;;
65033;SDS011;51601;51.356;12.458;2022-09-12T18:10:06;7.50;;;4.63;;
65033;SDS011;51601;51.356;12.458;2022-09-12T18:14:23;6.88;;;4.35;;
65033;SDS011;51601;51.356;12.458;2022-09-12T18:18:38;7.78;;;4.70;;
65033;SDS011;51601;51.356;12.458;2022-09-12T18:22:52;7.70;;;4.87;;
65033;SDS011;51601;51.356;12.458;2022-09-12T18:27:06;9.38;;;5.10;;
65033;SDS011;51601;51.356;12.458;2022-09-12T18:31:22;9.13;;;5.38;;
65033;SDS011;51601;51.356;12.458;2022-09-12T18:35:37;8.10;;;5.00;;
65033;SDS011;51601;51.356;12.458;2022-09-12T18:39:50;9.88;;;6.57;;
65033;SDS011;51601;51.356;12.458;2022-09-12T18:44:04;9.18;;;6.00;;
65033;SDS011;51601;51.356;12.458;2022-09-12T18:48:20;11.35;;;5.90;;
65033;SDS011;51601;51.356;12.458;2022-09-12T18:52:34;10.80;;;6.43;;
65033;SDS011;51601;51.356;12.458;2022-09-12T18:56:48;11.02;;;6.82;;
65033;SDS011;51601;51.356;12.458;2022-09-12T19:01:08;9.55;;;6.05;;
65033;SDS011;51601;51.356;12.458;2022-09-12T19:05:24;9.07;;;5.73;;
65033;SDS011;51601;51.356;12.458;2022-09-12T19:09:38;9.13;;;5.90;;
65033;SDS011;51601;51.356;12.458;2022-09-12T19:13:52;8.60;;;5.25;;
65033;SDS011;51601;51.356;12.458;2022-09-12T19:18:07;10.23;;;5.90;;
65033;SDS011;51601;51.356;12.458;2022-09-12T19:22:22;9.35;;;5.50;;
65033;SDS011;51601;51.356;12.458;2022-09-12T19:26:40;10.43;;;5.63;;
65033;SDS011;51601;51.356;12.458;2022-09-12T19:30:54;11.27;;;6.00;;
65033;SDS011;51601;51.356;12.458;2022-09-12T19:35:08;12.67;;;6.20;;
65033;SDS011;51601;51.356;12.458;2022-09-12T19:39:25;9.63;;;5.30;;
65033;SDS011;51601;51.356;12.458;2022-09-12T19:43:39;9.25;;;5.30;;
65033;SDS011;51601;51.356;12.458;2022-09-12T19:47:53;9.27;;;5.67;;
65033;SDS011;51601;51.356;12.458;2022-09-12T19:52:06;9.77;;;5.43;;
65033;SDS011;51601;51.356;12.458;2022-09-12T19:56:21;11.50;;;5.47;;
65033;SDS011;51601;51.356;12.458;2022-09-12T20:00:35;8.90;;;5.57;;
65033;SDS011;51601;51.356;12.458;2022-09-12T20:04:50;11.70;;;5.60;;
65033;SDS011;51601;51.356;12.458;2022-09-12T20:09:04;9.32;;;5.65;;
65033;SDS011;51601;51.356;12.458;2022-09-12T20:13:19;9.57;;;5.28;;
65033;SDS011;51601;51.356;12.458;2022-09-12T20:17:33;11.27;;;5.10;;
65033;SDS011;51601;51.356;12.458;2022-09-12T20:21:47;9.57;;;5.70;;
65033;SDS011;51601;51.356;12.458;2022-09-12T20:26:00;11.73;;;5.30;;
65033;SDS011;51601;51.356;12.458;2022-09-12T20:30:16;9.97;;;5.33;;
65033;SDS011;51601;51.356;12.458;2022-09-12T20:34:30;9.18;;;4.70;;
65033;SDS011;51601;51.356;12.458;2022-09-12T20:38:45;7.95;;;4.32;;
65033;SDS011;51601;51.356;12.458;2022-09-12T20:43:00;8.90;;;4.90;;
65033;SDS011;51601;51.356;12.458;2022-09-12T20:47:15;8.95;;;4.85;;
65033;SDS011;51601;51.356;12.458;2022-09-12T20:51:29;8.85;;;5.30;;
65033;SDS011;51601;51.356;12.458;2022-09-12T20:55:47;8.15;;;5.40;;
65033;SDS011;51601;51.356;12.458;2022-09-12T21:00:02;8.40;;;4.87;;
65033;SDS011;51601;51.356;12.458;2022-09-12T21:04:19;7.90;;;4.70;;
65033;SDS011;51601;51.356;12.458;2022-09-12T21:08:34;8.05;;;5.13;;
65033;SDS011;51601;51.356;12.458;2022-09-12T21:12:50;8.13;;;4.63;;
65033;SDS011;51601;51.356;12.458;2022-09-12T21:17:04;7.82;;;4.93;;
65033;SDS011;51601;51.356;12.458;2022-09-12T21:21:19;8.35;;;4.40;;
65033;SDS011;51601;51.356;12.458;2022-09-12T21:25:33;8.30;;;4.73;;
65033;SDS011;51601;51.356;12.458;2022-09-12T21:29:47;7.88;;;4.93;;
65033;SDS011;51601;51.356;12.458;2022-09-12T21:34:01;8.63;;;5.00;;
65033;SDS011;51601;51.356;12.458;2022-09-12T21:38:17;8.55;;;5.18;;
65033;SDS011;51601;51.356;12.458;2022-09-12T21:42:32;8.40;;;5.00;;
65033;SDS011;51601;51.356;12.458;2022-09-12T21:46:45;10.50;;;5.50;;
65033;SDS011;51601;51.356;12.458;2022-09-12T21:50:59;7.68;;;5.10;;
65033;SDS011;51601;51.356;12.458;2022-09-12T21:55:14;9.30;;;5.30;;
65033;SDS011;51601;51.356;12.458;2022-09-12T21:59:28;8.30;;;5.05;;
65033;SDS011;51601;51.356;12.458;2022-09-12T22:03:42;9.80;;;5.40;;
65033;SDS011;51601;51.356;12.458;2022-09-12T22:07:56;9.07;;;4.97;;
65033;SDS011;51601;51.356;12.458;2022-09-12T22:12:12;9.38;;;5.30;;
65033;SDS011;51601;51.356;12.458;2022-09-12T22:16:25;9.05;;;5.80;;
65033;SDS011;51601;51.356;12.458;2022-09-12T22:20:39;10.60;;;5.53;;
65033;SDS011;51601;51.356;12.458;2022-09-12T22:24:53;7.60;;;4.83;;
65033;SDS011;51601;51.356;12.458;2022-09-12T22:29:08;8.10;;;5.45;;
65033;SDS011;51601;51.356;12.458;2022-09-12T22:33:24;11.95;;;5.78;;
65033;SDS011;51601;51.356;12.458;2022-09-12T22:37:37;8.53;;;5.30;;
65033;SDS011;51601;51.356;12.458;2022-09-12T22:41:51;7.55;;;4.47;;
65033;SDS011;51601;51.356;12.458;2022-09-12T22:46:07;12.80;;;5.85;;
65033;SDS011;51601;51.356;12.458;2022-09-12T22:50:23;9.03;;;5.23;;
65033;SDS011;51601;51.356;12.458;2022-09-12T22:54:37;9.20;;;4.72;;
65033;SDS011;51601;51.356;12.458;2022-09-12T22:58:51;9.40;;;5.10;;
65033;SDS011;51601;51.356;12.458;2022-09-12T23:03:06;8.88;;;5.43;;
65033;SDS011;51601;51.356;12.458;2022-09-12T23:07:20;8.90;;;5.60;;
65033;SDS011;51601;51.356;12.458;2022-09-12T23:11:34;10.38;;;5.05;;
65033;SDS011;51601;51.356;12.458;2022-09-12T23:15:48;9.05;;;5.38;;
65033;SDS011;51601;51.356;12.458;2022-09-12T23:20:10;10.60;;;5.97;;
65033;SDS011;51601;51.356;12.458;2022-09-12T23:24:25;8.88;;;5.95;;
65033;SDS011;51601;51.356;12.458;2022-09-12T23:28:39;9.77;;;5.93;;
65033;SDS011;51601;51.356;12.458;2022-09-12T23:32:54;10.53;;;6.60;;
65033;SDS011;51601;51.356;12.458;2022-09-12T23:37:09;10.25;;;6.32;;
65033;SDS011;51601;51.356;12.458;2022-09-12T23:41:23;11.43;;;6.70;;
65033;SDS011;51601;51.356;12.458;2022-09-12T23:45:37;13.05;;;6.55;;
65033;SDS011;51601;51.356;12.458;2022-09-12T23:49:51;9.57;;;5.77;;
65033;SDS011;51601;51.356;12.458;2022-09-12T23:54:06;11.40;;;6.70;;
65033;SDS011;51601;51.356;12.458;2022-09-12T23:58:19;10.50;;;6.47;;
